Climatempo

Climatempo Meteorologia

Obter
publicidade

Painel Meteorológico - destaques de 03/05/2015

03/05/2015 às 23:08
por Josélia Pegorim

Ventania O deslocamento de uma forte frente fria provocou temporais com intensas rajadas de vento, acima dos 70 km/h, em localidades do Sul e de Mato Grosso do Sul. No Rio Grande do Sul, as rajadas passaram dos 90 km/h. Leia mais Fortes pancadas de chuva As nuvens formadas pelo calor e umidade do ar elevada e das áreas de instabilidade de uma nova frente fria provocaram fortes pancadas de chuva em áreas do Norte e do Sul do Brasil.

 

Chuva volumosa Grandes volumes de chuva foram observados no Sul e em Mato Grosso do Sul por causa da uma forte frente fria.

 

Frio O estado do Paraná foi o mais frio do Brasil neste domingo, onde várias cidades registraram temperaturas abaixo dos 10°C. Forte onda de frio avança para o Brasil nos próximos dias Calor As mais altas temperaturas no Brasil voltaram a ser observadas nos estados do Nordeste. Frio e neve na Argentina O domingo foi marcado por muito frio na maioria das regiões da Argentina. Nevou muito na região de Ushuaia, na Terra do Fogo. Ushuaia SN (snow) é o código para  neve; RA  (rain) é o código para chuva SAWH 032300Z 25027G37KT 4000 -SHRASN BKN015 BKN035 01/00 Q0992 SAWH 032200Z 25027G43KT 1500 -SHRASN BKN012 BKN025 01/00 Q0992 SAWH 032100Z 25029G40KT 3000 -SHRASN BKN012 BKN030 01/00 Q0991 SAWH 032000Z 25030G40KT 1200 SHRASN OVC003 02/01 Q0991 SAWH 031900Z 25030G44KT 3000 -SHRASN BKN012 BKN025 02/00 Q0990     Cinzas vulcânicas do Calbuco na região de Buenos Aires O aeroporto de San Fernando, cidade próxima de Buenos Aires, voltou a registrar cinzas vulcânicas provenientes da nova erupção do vulcão chileno Calbuco, que ocorreu em 30 de abril de 2015. Com a entrada da uma forte massa de ar polar, um intenso fluxo de ventos de sudoeste predominou sobre o centro-norte da Argentina trazendo as cinzas para  San Fernando. Bariloche e Neuquén continuam sob intensa influência da pluma de cinzas.   San Fernando SADF 040000Z 27004KT CAVOK 09/04 Q1013 SADF 032300Z 25005KT CAVOK 11/03 Q1013 RE VA SADF 032200Z 25006KT 9000 VA NSC 12/02 Q1012 SADF 032100Z 25010KT 9000 VA NSC 14/M01 Q1011 SADF 032000Z 25014KT CAVOK 15/M01 Q1011 RMK VA EN USPENCION